Time;durP1;ratioP1;P1;durP2;ratioP2;P2;SDS_P1;SDS_P2;PMS_P1;PMS_P2;Temp;Humidity;BMP_temperature;BMP_pressure;BME280_temperature;BME280_humidity;BME280_pressure;Samples;Min_cycle;Max_cycle;Signal;HPM_P1;HPM_P2
2021/01/27 00:00:36;;;;;;;24.02;11.70;;;3.60;83.30;;;;;;5015909;28;20033;-55
2021/01/27 00:03:03;;;;;;;27.40;12.90;;;3.60;83.20;;;;;;5017064;28;20532;-62
2021/01/27 00:05:30;;;;;;;23.70;11.90;;;3.50;83.40;;;;;;5016684;28;20485;-57
2021/01/27 00:07:57;;;;;;;26.85;12.20;;;3.50;83.20;;;;;;5014343;28;20021;-55
2021/01/27 00:10:24;;;;;;;22.52;11.63;;;3.50;83.20;;;;;;5018874;28;20469;-61
2021/01/27 00:12:50;;;;;;;24.15;11.50;;;3.50;83.30;;;;;;5011451;28;20048;-61
2021/01/27 00:15:23;;;;;;;24.52;12.32;;;3.50;83.60;;;;;;5015935;28;20034;-60
2021/01/27 00:17:49;;;;;;;20.75;11.13;;;3.60;83.10;;;;;;5015024;28;20025;-62
2021/01/27 00:20:17;;;;;;;21.27;10.98;;;3.70;83.10;;;;;;5018520;28;20604;-61
2021/01/27 00:22:43;;;;;;;21.70;11.13;;;3.60;82.50;;;;;;5000200;28;20034;-61
2021/01/27 00:25:12;;;;;;;20.80;10.23;;;3.70;82.90;;;;;;5017352;28;20029;-61
2021/01/27 00:27:38;;;;;;;27.88;11.75;;;3.70;82.60;;;;;;5017786;28;20786;-61
2021/01/27 00:30:08;;;;;;;27.20;11.73;;;3.70;82.60;;;;;;5013646;28;20074;-61
2021/01/27 00:32:34;;;;;;;22.98;10.88;;;3.70;82.60;;;;;;4994178;28;20897;-61
2021/01/27 00:34:59;;;;;;;22.55;10.77;;;3.80;82.60;;;;;;5013641;28;20030;-61
2021/01/27 00:37:25;;;;;;;20.45;10.55;;;3.80;82.30;;;;;;5017178;28;20055;-61
2021/01/27 00:39:50;;;;;;;20.80;10.18;;;3.80;81.80;;;;;;5009788;28;20037;-61
2021/01/27 00:42:16;;;;;;;18.08;9.20;;;3.80;81.80;;;;;;5012393;28;20584;-61
2021/01/27 00:44:42;;;;;;;19.13;9.43;;;3.80;81.80;;;;;;4993213;28;20037;-62
2021/01/27 00:47:07;;;;;;;18.77;9.55;;;3.80;81.30;;;;;;5012360;28;20037;-62
2021/01/27 00:49:33;;;;;;;19.70;10.02;;;3.80;81.40;;;;;;5012409;28;20113;-56
2021/01/27 00:51:59;;;;;;;21.75;10.13;;;3.90;81.30;;;;;;5011463;28;20029;-55
2021/01/27 00:54:24;;;;;;;16.13;9.55;;;3.90;80.90;;;;;;5015032;28;20029;-56
2021/01/27 00:56:50;;;;;;;17.90;9.13;;;3.90;81.00;;;;;;5012240;28;20912;-56
2021/01/27 00:59:16;;;;;;;18.70;10.27;;;3.90;80.80;;;;;;5012599;28;20184;-56
2021/01/27 01:01:42;;;;;;;17.67;10.27;;;3.80;80.80;;;;;;5010215;28;20033;-56
2021/01/27 01:04:16;;;;;;;17.15;9.10;;;3.70;80.90;;;;;;4989743;28;20128;-56
2021/01/27 01:06:42;;;;;;;19.27;8.95;;;3.70;80.80;;;;;;5012507;28;20045;-56
2021/01/27 01:09:08;;;;;;;;;;;3.60;81.30;;;;;;5011732;28;20096;-56
2021/01/27 01:11:33;;;;;;;17.35;9.07;;;3.50;81.40;;;;;;5011268;28;19936;-54
2021/01/27 01:13:59;;;;;;;16.13;8.23;;;3.50;81.60;;;;;;5013646;28;20029;-57
2021/01/27 01:16:25;;;;;;;15.27;8.38;;;3.50;81.90;;;;;;5015094;28;20048;-57
2021/01/27 01:18:51;;;;;;;15.30;8.68;;;3.40;81.80;;;;;;5013085;28;20037;-57
2021/01/27 01:21:16;;;;;;;18.23;9.15;;;3.40;81.60;;;;;;5011116;28;20041;-56
2021/01/27 01:23:42;;;;;;;17.98;9.20;;;3.30;81.60;;;;;;5009164;28;20436;-56
2021/01/27 01:26:09;;;;;;;22.83;10.70;;;3.20;81.50;;;;;;5010968;28;20025;-57
2021/01/27 01:28:35;;;;;;;18.77;9.30;;;3.20;81.90;;;;;;4992522;28;20051;-56
2021/01/27 01:31:00;;;;;;;20.80;10.52;;;3.10;82.00;;;;;;5009961;28;20650;-55
2021/01/27 01:33:30;;;;;;;19.58;10.00;;;3.00;82.20;;;;;;5013477;28;20637;-56
2021/01/27 01:35:56;;;;;;;16.85;9.13;;;2.90;82.40;;;;;;5012877;28;20084;-57
2021/01/27 01:38:22;;;;;;;20.40;11.20;;;2.80;82.50;;;;;;5010560;28;20084;-57
2021/01/27 01:40:54;;;;;;;17.45;9.40;;;2.80;83.10;;;;;;5008861;28;20044;-55
2021/01/27 01:43:32;;;;;;;24.77;10.88;;;2.80;83.20;;;;;;5010297;28;20041;-55
2021/01/27 01:46:00;;;;;;;22.48;11.07;;;2.70;83.60;;;;;;5011560;28;20131;-56
2021/01/27 01:48:29;;;;;;;23.55;11.55;;;2.70;83.80;;;;;;5012711;28;20108;-56
2021/01/27 01:51:08;;;;;;;25.70;12.27;;;2.70;84.00;;;;;;5013034;28;20037;-54
2021/01/27 01:53:34;;;;;;;23.92;12.77;;;2.60;84.20;;;;;;5016207;28;20045;-56
2021/01/27 01:56:04;;;;;;;23.17;11.77;;;2.60;84.30;;;;;;5014217;28;20030;-62
2021/01/27 01:58:31;;;;;;;26.25;13.20;;;2.50;83.70;;;;;;5011837;28;20037;-60
2021/01/27 02:01:00;;;;;;;23.88;12.73;;;2.40;84.30;;;;;;5016385;28;20770;-60
2021/01/27 02:03:32;;;;;;;25.33;13.25;;;2.40;85.20;;;;;;5016533;28;20034;-57
2021/01/27 02:05:59;;;;;;;24.42;12.20;;;2.30;84.70;;;;;;5012922;28;20033;-55
2021/01/27 02:08:27;;;;;;;30.08;14.55;;;2.30;85.30;;;;;;5015360;28;20026;-55
2021/01/27 02:10:53;;;;;;;34.78;14.73;;;2.20;85.40;;;;;;5015252;28;20310;-56
2021/01/27 02:13:36;;;;;;;31.67;13.63;;;2.20;85.60;;;;;;5015877;28;20044;-57
2021/01/27 02:16:10;;;;;;;29.95;14.30;;;2.10;85.50;;;;;;5014849;28;20041;-55
2021/01/27 02:18:56;;;;;;;33.40;15.32;;;2.10;86.10;;;;;;4997950;28;20065;-55
2021/01/27 02:22:00;;;;;;;29.80;13.70;;;2.10;86.40;;;;;;5016158;28;20038;-56
2021/01/27 02:24:54;;;;;;;35.35;15.15;;;2.10;86.10;;;;;;5016181;28;20128;-55
2021/01/27 02:27:36;;;;;;;30.83;14.02;;;2.00;86.80;;;;;;4998619;28;20048;-55
2021/01/27 02:30:40;;;;;;;31.25;16.13;;;2.00;86.70;;;;;;5015849;28;20048;-56
2021/01/27 02:33:27;;;;;;;35.88;15.43;;;2.00;87.30;;;;;;4998141;28;20444;-56
2021/01/27 02:36:28;;;;;;;35.15;15.70;;;2.00;87.40;;;;;;5012053;28;20060;-55
2021/01/27 02:39:03;;;;;;;36.45;16.02;;;2.00;87.70;;;;;;4989095;28;20053;-53
2021/01/27 02:41:58;;;;;;;36.53;16.88;;;2.10;87.90;;;;;;5016237;28;20136;-54
2021/01/27 02:44:48;;;;;;;34.80;15.77;;;2.20;87.50;;;;;;5015467;28;20110;-56
2021/01/27 02:47:20;;;;;;;39.30;17.80;;;2.30;86.80;;;;;;5015562;28;20037;-54
2021/01/27 02:49:56;;;;;;;40.13;16.17;;;2.30;86.60;;;;;;5015045;28;20030;-56
2021/01/27 02:52:29;;;;;;;33.60;15.67;;;2.30;86.50;;;;;;5015514;28;20041;-53
2021/01/27 02:55:18;;;;;;;34.67;17.38;;;2.20;86.40;;;;;;5017452;28;20037;-56
2021/01/27 02:57:54;;;;;;;36.33;16.55;;;2.30;86.60;;;;;;5019549;28;20034;-55
2021/01/27 03:00:31;;;;;;;32.10;16.02;;;2.40;86.50;;;;;;5018999;28;20042;-56
2021/01/27 03:02:59;;;;;;;31.80;14.98;;;2.30;86.40;;;;;;5020051;28;20348;-55
2021/01/27 03:05:29;;;;;;;27.05;14.50;;;2.30;86.20;;;;;;5000878;28;20041;-56
2021/01/27 03:08:03;;;;;;;32.58;15.27;;;2.30;86.30;;;;;;5001548;28;20048;-61
2021/01/27 03:10:42;;;;;;;30.15;15.60;;;2.40;86.60;;;;;;5019415;28;20055;-61
2021/01/27 03:13:10;;;;;;;34.30;16.92;;;2.40;86.70;;;;;;5001622;28;20037;-61
2021/01/27 03:15:37;;;;;;;33.28;16.30;;;2.30;86.50;;;;;;5018294;28;20091;-61
2021/01/27 03:18:05;;;;;;;32.38;15.43;;;2.30;86.40;;;;;;4985535;28;20133;-61
2021/01/27 03:20:33;;;;;;;35.40;17.48;;;2.30;86.60;;;;;;5018744;28;20051;-55
2021/01/27 03:23:22;;;;;;;30.92;16.20;;;2.30;87.00;;;;;;5018301;28;20389;-55
2021/01/27 03:25:54;;;;;;;29.90;14.25;;;2.30;86.90;;;;;;5000313;28;20033;-55
2021/01/27 03:28:28;;;;;;;30.38;15.05;;;2.30;86.90;;;;;;5018337;28;20106;-61
2021/01/27 03:30:54;;;;;;;33.75;16.02;;;2.40;87.00;;;;;;5017720;28;20029;-62
2021/01/27 03:33:47;;;;;;;29.42;15.30;;;2.40;86.80;;;;;;5018427;28;20037;-61
2021/01/27 03:36:14;;;;;;;34.45;16.05;;;2.40;86.50;;;;;;5018390;28;20033;-62
2021/01/27 03:38:45;;;;;;;31.92;16.33;;;2.40;86.60;;;;;;5017723;28;20041;-61
2021/01/27 03:41:21;;;;;;;30.77;16.40;;;2.50;86.60;;;;;;5018717;28;20819;-62
2021/01/27 03:44:17;;;;;;;35.95;18.33;;;2.50;86.50;;;;;;5017519;28;20041;-61
2021/01/27 03:46:55;;;;;;;37.60;18.33;;;2.50;86.80;;;;;;5017446;28;20499;-61
2021/01/27 03:49:32;;;;;;;43.85;19.23;;;2.60;86.80;;;;;;5017159;28;20136;-62
2021/01/27 03:52:12;;;;;;;39.10;18.17;;;2.60;86.80;;;;;;5017808;28;20669;-61
2021/01/27 03:54:42;;;;;;;43.75;19.80;;;2.50;86.70;;;;;;5017549;28;20033;-61
2021/01/27 03:57:17;;;;;;;37.83;19.40;;;2.50;87.20;;;;;;5017776;28;20121;-61
2021/01/27 03:59:46;;;;;;;36.92;18.63;;;2.50;87.40;;;;;;5016865;28;20033;-62
2021/01/27 04:02:15;;;;;;;35.17;18.58;;;2.60;87.00;;;;;;5017810;28;20116;-61
2021/01/27 04:04:41;;;;;;;36.90;18.67;;;2.50;87.10;;;;;;4999619;28;20033;-61
2021/01/27 04:07:06;;;;;;;34.83;18.85;;;2.50;86.90;;;;;;5016202;28;20045;-62
2021/01/27 04:09:32;;;;;;;37.90;18.92;;;2.50;86.80;;;;;;4999729;28;20033;-53
2021/01/27 04:11:58;;;;;;;37.72;18.23;;;2.50;87.00;;;;;;5017472;28;20084;-56
2021/01/27 04:14:24;;;;;;;36.17;18.00;;;2.50;87.00;;;;;;5017198;28;20029;-56
2021/01/27 04:16:49;;;;;;;36.95;18.67;;;2.60;86.80;;;;;;5016710;28;20077;-56
2021/01/27 04:19:15;;;;;;;39.30;18.05;;;2.60;86.70;;;;;;5017645;28;20104;-54
2021/01/27 04:21:41;;;;;;;38.53;18.40;;;2.60;86.70;;;;;;5017070;28;20527;-56
2021/01/27 04:24:06;;;;;;;37.67;18.40;;;2.70;86.30;;;;;;5017804;28;20033;-54
2021/01/27 04:26:34;;;;;;;41.03;19.13;;;2.80;86.00;;;;;;5015896;28;20072;-54
2021/01/27 04:28:59;;;;;;;45.28;20.30;;;2.80;85.80;;;;;;5011415;28;20076;-54
2021/01/27 04:31:25;;;;;;;34.58;18.83;;;2.70;85.90;;;;;;5016873;28;20117;-56
2021/01/27 04:33:51;;;;;;;39.50;18.52;;;2.60;85.80;;;;;;5017202;28;20049;-57
2021/01/27 04:36:16;;;;;;;37.72;18.90;;;2.60;86.20;;;;;;5016268;28;20948;-54
2021/01/27 04:38:42;;;;;;;33.97;17.02;;;2.50;86.00;;;;;;5017351;28;20553;-61
2021/01/27 04:41:09;;;;;;;36.90;18.55;;;2.50;86.10;;;;;;5017424;28;20612;-57
2021/01/27 04:43:41;;;;;;;40.83;17.77;;;2.50;86.20;;;;;;5016956;28;20524;-55
2021/01/27 04:46:32;;;;;;;39.05;18.48;;;2.50;86.00;;;;;;5017739;28;20037;-56
2021/01/27 04:49:03;;;;;;;36.40;18.30;;;2.50;85.90;;;;;;5016370;28;20171;-56
2021/01/27 04:51:52;;;;;;;33.38;16.95;;;2.50;86.10;;;;;;5016947;28;20037;-56
2021/01/27 04:54:45;;;;;;;38.58;17.52;;;2.40;86.00;;;;;;5016452;28;20033;-57
2021/01/27 04:57:46;;;;;;;36.65;18.40;;;2.40;86.10;;;;;;4985127;28;20096;-57
2021/01/27 05:00:20;;;;;;;41.38;20.40;;;2.50;86.30;;;;;;5001448;28;20045;-55
2021/01/27 05:03:16;;;;;;;35.08;17.38;;;2.40;87.00;;;;;;5016808;28;20033;-55
2021/01/27 05:05:44;;;;;;;35.85;18.38;;;2.40;87.10;;;;;;5015868;28;20488;-56
2021/01/27 05:08:27;;;;;;;34.88;16.85;;;2.30;86.50;;;;;;5015989;28;20029;-57
2021/01/27 05:11:01;;;;;;;38.85;19.00;;;2.30;86.70;;;;;;5015956;28;20033;-57
2021/01/27 05:13:38;;;;;;;36.13;17.52;;;2.40;87.30;;;;;;5015596;28;20033;-56
2021/01/27 05:16:14;;;;;;;;;;;2.50;87.20;;;;;;5016450;28;20041;-55
2021/01/27 05:18:41;;;;;;;39.20;17.27;;;2.50;86.60;;;;;;5016455;28;19920;-55
2021/01/27 05:21:26;;;;;;;37.53;17.33;;;2.60;86.80;;;;;;5016013;28;20044;-55
2021/01/27 05:23:53;;;;;;;37.40;18.30;;;2.70;86.50;;;;;;5017904;28;20029;-56
2021/01/27 05:26:21;;;;;;;33.92;17.38;;;2.80;86.00;;;;;;5017423;28;20065;-56
2021/01/27 05:28:58;;;;;;;33.80;16.95;;;2.90;85.50;;;;;;5017742;28;20029;-61
2021/01/27 05:31:45;;;;;;;39.28;18.65;;;3.00;85.50;;;;;;5018203;28;20037;-61
2021/01/27 05:34:36;;;;;;;32.13;16.40;;;3.00;85.30;;;;;;5017080;28;20037;-61
2021/01/27 05:37:07;;;;;;;34.22;17.00;;;3.10;85.00;;;;;;5015253;28;20056;-61
2021/01/27 05:39:34;;;;;;;37.75;19.35;;;3.10;84.90;;;;;;4997798;28;20052;-61
2021/01/27 05:42:36;;;;;;;53.03;27.45;;;3.20;84.70;;;;;;5015737;28;20037;-61
2021/01/27 05:45:30;;;;;;;59.00;32.13;;;3.20;84.60;;;;;;5016413;28;20033;-55
2021/01/27 05:48:11;;;;;;;43.00;21.00;;;3.30;84.30;;;;;;5015193;28;20041;-55
2021/01/27 05:50:39;;;;;;;37.50;19.17;;;3.30;84.10;;;;;;5016024;28;20583;-57
2021/01/27 05:53:16;;;;;;;33.55;17.63;;;3.30;83.40;;;;;;5016120;28;20041;-54
2021/01/27 05:56:06;;;;;;;33.00;16.73;;;3.40;83.60;;;;;;4997818;28;20029;-56
2021/01/27 05:58:38;;;;;;;32.75;17.35;;;3.40;83.50;;;;;;5015702;28;20037;-55
2021/01/27 06:01:20;;;;;;;33.03;17.45;;;3.40;83.70;;;;;;5014127;28;20065;-56
2021/01/27 06:04:10;;;;;;;29.00;15.25;;;3.40;83.60;;;;;;5016011;28;20030;-56
2021/01/27 06:06:56;;;;;;;29.30;16.15;;;3.40;83.40;;;;;;5015256;28;20523;-56
2021/01/27 06:09:42;;;;;;;31.60;15.60;;;3.40;83.40;;;;;;4998233;28;20038;-56
2021/01/27 06:12:20;;;;;;;31.33;16.13;;;3.30;83.40;;;;;;5015122;28;20034;-62
2021/01/27 06:15:04;;;;;;;29.23;16.15;;;3.20;83.10;;;;;;5015984;28;20548;-61
2021/01/27 06:17:40;;;;;;;34.30;16.38;;;3.20;84.00;;;;;;4997500;28;20033;-61
2021/01/27 06:20:12;;;;;;;33.60;16.25;;;3.20;84.30;;;;;;5015100;28;20239;-62
2021/01/27 06:22:57;;;;;;;34.30;16.73;;;3.20;84.00;;;;;;5015530;28;20061;-61
2021/01/27 06:25:29;;;;;;;27.88;13.43;;;3.30;84.10;;;;;;5011065;28;20787;-61
2021/01/27 06:28:07;;;;;;;35.15;16.25;;;3.20;83.90;;;;;;5009808;28;20128;-61
2021/01/27 06:30:33;;;;;;;29.80;15.35;;;3.30;83.70;;;;;;5014840;28;20280;-61
2021/01/27 06:33:15;;;;;;;30.70;16.25;;;3.30;83.50;;;;;;5015170;28;20026;-62
2021/01/27 06:36:18;;;;;;;34.60;16.10;;;3.30;83.60;;;;;;5015024;28;20440;-61
2021/01/27 06:39:21;;;;;;;32.20;15.35;;;3.30;83.70;;;;;;5011940;28;20172;-62
2021/01/27 06:42:12;;;;;;;28.95;14.00;;;3.30;83.80;;;;;;5014043;28;20923;-61
2021/01/27 06:44:43;;;;;;;27.50;13.43;;;3.30;83.20;;;;;;4995618;28;20045;-61
2021/01/27 06:47:17;;;;;;;25.60;12.60;;;3.20;83.50;;;;;;5014447;28;20801;-61
2021/01/27 06:49:57;;;;;;;29.38;15.25;;;3.20;83.80;;;;;;4996243;28;20084;-62
2021/01/27 06:52:41;;;;;;;27.55;14.18;;;3.20;83.80;;;;;;5015272;28;20641;-62
2021/01/27 06:55:20;;;;;;;29.60;15.00;;;3.30;83.90;;;;;;5014405;28;20046;-62
2021/01/27 06:58:10;;;;;;;32.33;15.85;;;3.30;83.70;;;;;;5014675;28;20425;-62
2021/01/27 07:00:54;;;;;;;30.05;14.57;;;3.40;83.70;;;;;;5014713;28;20022;-56
2021/01/27 07:03:41;;;;;;;28.63;14.85;;;3.40;83.40;;;;;;5010573;28;20033;-57
2021/01/27 07:06:43;;;;;;;29.88;15.18;;;3.50;83.40;;;;;;5013929;28;20041;-62
2021/01/27 07:09:35;;;;;;;29.83;14.98;;;3.50;83.10;;;;;;5014078;28;20037;-61
2021/01/27 07:12:25;;;;;;;27.75;14.63;;;3.40;83.30;;;;;;5012709;28;20088;-62
2021/01/27 07:15:12;;;;;;;28.40;14.57;;;3.40;83.40;;;;;;5014743;28;20039;-61
2021/01/27 07:17:52;;;;;;;25.90;14.10;;;3.40;83.60;;;;;;5014988;28;20029;-54
2021/01/27 07:20:41;;;;;;;28.98;15.07;;;3.40;83.70;;;;;;5009954;28;20481;-57
2021/01/27 07:23:23;;;;;;;28.40;14.63;;;3.40;83.20;;;;;;5014219;28;20037;-56
2021/01/27 07:25:58;;;;;;;24.02;14.00;;;3.40;83.40;;;;;;5014107;28;20215;-55
2021/01/27 07:28:24;;;;;;;28.85;15.15;;;3.50;83.40;;;;;;4988214;28;20814;-56
2021/01/27 07:31:13;;;;;;;27.52;13.93;;;3.50;82.90;;;;;;5014617;28;20091;-56
2021/01/27 07:34:05;;;;;;;27.95;14.63;;;3.60;83.20;;;;;;5014603;28;20382;-56
2021/01/27 07:36:56;;;;;;;29.15;13.32;;;3.60;83.20;;;;;;5000402;28;20045;-61
2021/01/27 07:39:25;;;;;;;30.02;14.77;;;3.70;82.90;;;;;;5009644;28;20045;-61
2021/01/27 07:42:06;;;;;;;29.70;15.63;;;3.70;82.90;;;;;;5015955;28;20800;-61
2021/01/27 07:44:32;;;;;;;31.70;14.13;;;3.70;82.60;;;;;;5017247;28;20536;-61
2021/01/27 07:47:25;;;;;;;28.15;15.10;;;3.80;82.20;;;;;;5017087;28;20047;-61
2021/01/27 07:49:58;;;;;;;28.40;15.00;;;3.80;82.20;;;;;;5017216;28;20040;-61
2021/01/27 07:52:32;;;;;;;28.02;14.65;;;3.80;81.60;;;;;;5018319;28;20107;-61
2021/01/27 07:55:19;;;;;;;25.70;14.00;;;3.70;82.00;;;;;;4992200;28;20049;-57
2021/01/27 07:58:02;;;;;;;25.50;13.90;;;3.70;82.50;;;;;;5017831;28;20085;-57
2021/01/27 08:00:49;;;;;;;29.73;15.23;;;3.70;82.10;;;;;;5016970;28;20939;-56
2021/01/27 08:03:33;;;;;;;34.40;16.50;;;3.70;82.50;;;;;;5017429;28;20107;-57
2021/01/27 08:06:06;;;;;;;26.13;14.40;;;3.70;83.00;;;;;;5014697;28;20044;-56
2021/01/27 08:08:47;;;;;;;26.33;14.07;;;3.70;83.20;;;;;;5016613;28;20030;-57
2021/01/27 08:11:18;;;;;;;23.88;13.88;;;3.80;82.90;;;;;;5016502;28;20154;-57
2021/01/27 08:13:43;;;;;;;26.15;13.45;;;3.90;82.90;;;;;;5017222;28;20096;-56
2021/01/27 08:16:15;;;;;;;31.60;16.05;;;3.90;82.70;;;;;;5015787;28;20942;-55
2021/01/27 08:19:21;;;;;;;28.27;13.50;;;4.00;82.60;;;;;;5016754;28;20037;-60
2021/01/27 08:21:47;;;;;;;28.60;15.10;;;4.10;81.90;;;;;;4934227;29;20150;-61
2021/01/27 08:24:34;;;;;;;25.48;13.75;;;4.20;81.40;;;;;;4936180;28;20537;-62
2021/01/27 08:27:16;;;;;;;23.67;13.15;;;4.20;81.60;;;;;;4985628;28;20061;-61
2021/01/27 08:30:02;;;;;;;27.70;14.45;;;4.30;81.50;;;;;;5015824;28;20053;-61
2021/01/27 08:32:29;;;;;;;27.98;13.88;;;4.30;80.80;;;;;;5014882;28;20794;-61
2021/01/27 08:34:59;;;;;;;24.15;13.30;;;4.40;80.60;;;;;;5013515;28;20040;-56
2021/01/27 08:37:29;;;;;;;25.08;14.15;;;4.40;79.70;;;;;;5015413;28;20041;-61
2021/01/27 08:40:09;;;;;;;23.90;13.60;;;4.40;80.20;;;;;;5015074;28;20040;-61
2021/01/27 08:45:29;;;;;;;25.40;13.82;;;4.50;79.70;;;;;;4978760;23;20147;-61
2021/01/27 08:48:02;;;;;;;22.48;13.45;;;4.60;79.60;;;;;;4993483;28;20133;-61
2021/01/27 08:50:43;;;;;;;22.38;12.95;;;4.60;79.20;;;;;;4991852;28;20040;-61
2021/01/27 08:53:20;;;;;;;22.13;12.10;;;4.70;79.40;;;;;;4985670;28;20177;-61
2021/01/27 08:55:45;;;;;;;23.67;12.25;;;4.80;79.00;;;;;;4972273;28;20116;-61
2021/01/27 08:58:35;;;;;;;19.50;12.25;;;4.80;78.40;;;;;;4968031;28;20034;-61
2021/01/27 09:01:07;;;;;;;21.63;11.90;;;4.90;78.30;;;;;;4960766;28;20121;-62
2021/01/27 09:03:45;;;;;;;18.83;11.65;;;4.90;77.60;;;;;;4975998;28;20053;-62
2021/01/27 09:06:22;;;;;;;21.42;12.18;;;4.80;78.50;;;;;;4967996;28;20042;-62
2021/01/27 09:08:48;;;;;;;22.45;12.68;;;4.80;78.50;;;;;;4976399;28;20092;-62
2021/01/27 09:11:18;;;;;;;21.85;12.45;;;4.70;78.00;;;;;;4976010;28;20041;-62
2021/01/27 09:13:45;;;;;;;20.05;11.20;;;4.70;78.10;;;;;;4975383;28;20030;-61
2021/01/27 09:16:12;;;;;;;21.45;12.30;;;4.70;77.90;;;;;;4969457;28;20030;-61
2021/01/27 09:18:39;;;;;;;21.42;11.77;;;4.70;78.80;;;;;;4975389;28;20129;-61
2021/01/27 09:21:19;;;;;;;21.52;12.07;;;4.60;78.00;;;;;;4975393;28;20058;-61
2021/01/27 09:23:47;;;;;;;20.77;11.02;;;4.60;79.40;;;;;;4974984;28;20038;-61
2021/01/27 09:26:34;;;;;;;20.67;12.18;;;4.60;79.10;;;;;;4974888;28;20037;-61
2021/01/27 09:29:07;;;;;;;21.20;12.05;;;4.80;78.40;;;;;;4975429;28;20041;-60
2021/01/27 09:31:33;;;;;;;22.40;12.10;;;4.90;77.90;;;;;;4974997;28;20035;-61
2021/01/27 09:33:59;;;;;;;21.70;12.75;;;5.10;76.30;;;;;;4976137;28;20038;-62
2021/01/27 09:36:28;;;;;;;22.83;12.30;;;5.50;75.60;;;;;;4975459;28;20136;-61
2021/01/27 09:38:56;;;;;;;20.90;11.50;;;6.40;72.10;;;;;;4974068;28;20793;-62
2021/01/27 09:41:28;;;;;;;21.42;11.80;;;7.40;67.90;;;;;;4975585;28;20045;-62
2021/01/27 09:43:55;;;;;;;21.95;13.38;;;7.80;66.10;;;;;;4974969;28;20038;-64
2021/01/27 09:46:36;;;;;;;28.77;16.75;;;8.80;64.20;;;;;;4975058;28;20425;-62
2021/01/27 09:49:09;;;;;;;24.23;13.50;;;9.20;61.30;;;;;;4973920;28;20061;-62
2021/01/27 09:51:37;;;;;;;34.13;22.52;;;9.20;60.40;;;;;;4975481;28;20552;-63
2021/01/27 09:54:03;;;;;;;22.33;13.88;;;9.10;60.00;;;;;;4972664;28;20568;-63
2021/01/27 09:56:30;;;;;;;14.88;9.40;;;9.60;60.00;;;;;;4970479;28;20045;-63
2021/01/27 09:58:58;;;;;;;24.73;16.80;;;10.20;59.30;;;;;;4971344;28;20030;-62
2021/01/27 10:01:27;;;;;;;22.30;15.20;;;10.60;57.00;;;;;;4972316;28;20038;-62
2021/01/27 10:04:05;;;;;;;20.83;13.32;;;10.70;56.30;;;;;;4973667;28;20034;-63
2021/01/27 10:06:56;;;;;;;18.55;11.27;;;10.70;55.40;;;;;;4974647;28;20045;-63
2021/01/27 10:09:27;;;;;;;18.27;13.05;;;10.60;55.40;;;;;;4974737;28;20042;-63
2021/01/27 10:12:19;;;;;;;18.65;12.27;;;10.60;56.40;;;;;;4973118;28;20037;-63
2021/01/27 10:14:47;;;;;;;21.35;13.55;;;10.30;55.70;;;;;;4973678;28;20049;-64
2021/01/27 10:17:14;;;;;;;17.38;12.15;;;9.50;57.30;;;;;;4983562;28;20039;-63
2021/01/27 10:20:19;;;;;;;18.98;12.88;;;8.90;59.40;;;;;;4971522;28;20030;-63
2021/01/27 10:22:56;;;;;;;17.33;11.25;;;8.60;61.60;;;;;;4968437;28;20045;-63
2021/01/27 10:25:24;;;;;;;15.93;10.25;;;8.40;62.40;;;;;;4974250;28;20417;-63
2021/01/27 10:28:04;;;;;;;20.20;11.88;;;8.00;62.10;;;;;;4974157;28;20038;-62
2021/01/27 10:30:42;;;;;;;20.25;12.18;;;7.80;64.10;;;;;;4974094;28;20042;-62
2021/01/27 10:33:48;;;;;;;27.52;15.93;;;7.60;64.50;;;;;;4974305;28;20038;-61
2021/01/27 10:36:39;;;;;;;27.95;15.00;;;7.40;65.70;;;;;;4974284;28;20037;-62
2021/01/27 10:39:24;;;;;;;23.10;12.38;;;7.00;65.30;;;;;;4973862;28;20034;-63
2021/01/27 10:41:54;;;;;;;18.80;11.40;;;6.70;67.40;;;;;;4973898;28;20390;-62
2021/01/27 10:44:22;;;;;;;43.55;20.15;;;6.70;67.30;;;;;;4973285;28;20457;-63
2021/01/27 10:46:51;;;;;;;37.67;18.67;;;6.40;67.60;;;;;;4974028;28;20595;-62
2021/01/27 10:49:17;;;;;;;37.25;15.98;;;6.30;68.80;;;;;;4973028;28;20061;-62
2021/01/27 10:51:44;;;;;;;34.13;17.08;;;6.30;69.00;;;;;;4972140;28;20113;-62
2021/01/27 10:54:10;;;;;;;49.40;19.67;;;6.20;69.30;;;;;;4973780;28;20098;-63
2021/01/27 10:56:36;;;;;;;53.13;21.52;;;6.10;69.40;;;;;;4973465;28;20651;-62
2021/01/27 10:59:02;;;;;;;45.20;17.83;;;5.90;69.90;;;;;;4972944;28;20038;-62
2021/01/27 11:01:28;;;;;;;34.15;17.42;;;5.90;71.40;;;;;;4974459;28;20044;-62
2021/01/27 11:03:53;;;;;;;32.20;15.57;;;6.00;70.50;;;;;;4973979;28;20045;-62
2021/01/27 11:06:19;;;;;;;35.80;17.67;;;6.10;70.50;;;;;;4973217;28;20038;-62
2021/01/27 11:08:45;;;;;;;33.70;16.45;;;6.10;70.50;;;;;;4972380;28;20074;-62
2021/01/27 11:11:12;;;;;;;26.83;14.35;;;6.10;70.10;;;;;;4972564;28;20138;-62
2021/01/27 11:13:38;;;;;;;37.80;17.58;;;6.20;70.60;;;;;;4973679;28;20034;-62
2021/01/27 11:16:06;;;;;;;30.55;14.50;;;6.20;69.60;;;;;;4974351;28;20493;-62
2021/01/27 11:18:33;;;;;;;37.97;17.42;;;6.20;70.60;;;;;;4977522;28;20056;-62
2021/01/27 11:21:00;;;;;;;23.92;12.82;;;6.20;70.40;;;;;;4977158;28;20034;-62
2021/01/27 11:23:25;;;;;;;20.15;10.98;;;6.20;70.00;;;;;;4977281;28;20038;-62
2021/01/27 11:25:53;;;;;;;17.70;10.02;;;6.30;69.90;;;;;;4976348;28;20072;-62
2021/01/27 11:28:20;;;;;;;30.15;14.07;;;6.50;69.10;;;;;;4976782;28;20042;-62
2021/01/27 11:30:47;;;;;;;28.35;12.85;;;6.60;68.00;;;;;;4979215;28;20428;-64
2021/01/27 11:33:12;;;;;;;32.35;15.73;;;6.50;68.20;;;;;;4979255;28;20058;-62
2021/01/27 11:35:38;;;;;;;25.17;13.40;;;6.40;68.70;;;;;;4978466;28;20661;-62
2021/01/27 11:38:04;;;;;;;26.02;14.05;;;6.40;69.10;;;;;;4978838;28;20034;-62
2021/01/27 11:40:30;;;;;;;25.90;12.25;;;6.30;69.00;;;;;;4979889;28;20380;-62
2021/01/27 11:42:56;;;;;;;31.55;14.05;;;6.20;68.80;;;;;;4977317;28;20030;-62
2021/01/27 11:45:24;;;;;;;20.70;11.80;;;6.30;69.40;;;;;;4977445;28;20057;-62
2021/01/27 11:47:50;;;;;;;22.42;12.02;;;6.30;69.80;;;;;;4976851;28;20038;-62
2021/01/27 11:50:20;;;;;;;21.95;12.27;;;6.30;69.50;;;;;;4977065;28;20034;-62
2021/01/27 11:52:47;;;;;;;21.88;11.63;;;6.30;69.80;;;;;;4976597;28;20034;-63
2021/01/27 11:55:13;;;;;;;18.63;10.18;;;6.30;70.30;;;;;;4971396;28;21041;-63
2021/01/27 11:57:39;;;;;;;24.70;13.70;;;6.50;68.90;;;;;;4974636;28;20657;-63
2021/01/27 12:00:06;;;;;;;21.00;10.65;;;6.40;68.50;;;;;;4975188;28;20050;-63
2021/01/27 12:02:32;;;;;;;26.02;12.77;;;6.50;69.30;;;;;;4976451;28;20038;-64
2021/01/27 12:04:58;;;;;;;26.90;12.65;;;6.50;69.60;;;;;;4969296;28;20049;-63
2021/01/27 12:07:23;;;;;;;21.80;12.15;;;6.60;68.90;;;;;;4977643;28;20034;-63
2021/01/27 12:09:49;;;;;;;19.98;11.05;;;6.70;67.80;;;;;;4977175;28;20030;-64
2021/01/27 12:12:14;;;;;;;19.83;12.75;;;6.70;67.90;;;;;;4976774;28;20490;-63
2021/01/27 12:14:40;;;;;;;26.60;14.25;;;6.70;67.30;;;;;;4977897;28;20117;-63
2021/01/27 12:17:06;;;;;;;22.83;10.80;;;6.60;67.40;;;;;;4977752;28;20144;-63
2021/01/27 12:19:31;;;;;;;17.67;10.40;;;6.60;67.40;;;;;;4978613;28;20877;-63
2021/01/27 12:21:57;;;;;;;18.42;9.40;;;6.60;67.50;;;;;;4978145;28;20085;-63
2021/01/27 12:24:27;;;;;;;25.48;12.52;;;6.70;67.60;;;;;;4978084;28;20109;-63
2021/01/27 12:26:52;;;;;;;17.55;10.00;;;6.80;66.80;;;;;;4975916;28;20137;-63
2021/01/27 12:29:19;;;;;;;18.35;10.63;;;6.80;66.60;;;;;;4977395;28;20768;-63
2021/01/27 12:31:45;;;;;;;17.35;10.55;;;6.80;66.70;;;;;;4977437;28;20112;-64
2021/01/27 12:34:13;;;;;;;18.15;9.57;;;6.70;67.70;;;;;;4977470;28;20038;-63
2021/01/27 12:36:39;;;;;;;16.58;10.07;;;6.70;67.60;;;;;;4976339;28;20130;-63
2021/01/27 12:39:05;;;;;;;15.88;10.57;;;6.70;68.30;;;;;;4976918;28;20034;-63
2021/01/27 12:41:31;;;;;;;16.83;10.15;;;6.70;67.50;;;;;;4977273;28;20038;-63
2021/01/27 12:43:57;;;;;;;18.50;10.68;;;6.90;67.20;;;;;;4969088;28;20057;-63
2021/01/27 12:46:22;;;;;;;16.92;10.32;;;6.90;67.00;;;;;;4976845;28;20482;-63
2021/01/27 12:48:48;;;;;;;14.93;8.45;;;6.90;65.90;;;;;;4976899;28;20034;-62
2021/01/27 12:51:14;;;;;;;14.32;8.82;;;6.90;65.20;;;;;;4976673;28;20037;-63
2021/01/27 12:53:39;;;;;;;12.70;8.05;;;7.00;66.80;;;;;;4975190;28;20152;-63
2021/01/27 12:56:05;;;;;;;15.18;9.38;;;6.90;65.40;;;;;;4976660;28;20038;-63
2021/01/27 12:58:30;;;;;;;15.45;9.85;;;6.90;65.40;;;;;;4974351;28;20137;-63
2021/01/27 13:00:56;;;;;;;14.55;8.93;;;6.80;65.00;;;;;;4977009;28;20738;-64
2021/01/27 13:03:22;;;;;;;14.20;8.52;;;6.80;66.40;;;;;;4977010;28;20414;-64
2021/01/27 13:05:50;;;;;;;18.73;8.73;;;6.80;65.90;;;;;;4975720;28;20034;-63
2021/01/27 13:08:15;;;;;;;12.85;8.77;;;6.80;66.10;;;;;;4967613;28;20039;-63
2021/01/27 13:10:42;;;;;;;16.00;7.65;;;6.70;67.00;;;;;;4976035;28;20038;-63
2021/01/27 13:13:10;;;;;;;12.50;7.68;;;6.80;66.90;;;;;;4975139;28;20100;-63